createdAt,value
2023-05-21T00:02:24.045Z,8.65
2023-05-21T00:04:51.568Z,7.63
2023-05-21T00:07:19.181Z,9.67
2023-05-21T00:09:46.759Z,7.97
2023-05-21T00:12:14.336Z,9.03
2023-05-21T00:14:41.949Z,9.53
2023-05-21T00:17:09.530Z,10.57
2023-05-21T00:19:37.136Z,7.87
2023-05-21T00:22:04.750Z,9.50
2023-05-21T00:24:32.344Z,8.13
2023-05-21T00:26:59.918Z,8.10
2023-05-21T00:29:27.558Z,8.13
2023-05-21T00:31:55.158Z,6.83
2023-05-21T00:34:22.712Z,8.23
2023-05-21T00:36:51.120Z,9.67
2023-05-21T00:39:18.692Z,7.63
2023-05-21T00:41:46.266Z,8.40
2023-05-21T00:44:13.890Z,7.83
2023-05-21T00:46:42.231Z,9.60
2023-05-21T00:49:09.805Z,9.63
2023-05-21T00:51:38.197Z,10.30
2023-05-21T00:54:06.562Z,9.50
2023-05-21T00:56:34.132Z,8.90
2023-05-21T00:59:02.537Z,9.23
2023-05-21T01:01:30.162Z,9.77
2023-05-21T01:03:57.735Z,10.10
2023-05-21T01:06:25.321Z,10.27
2023-05-21T01:08:52.899Z,9.83
2023-05-21T01:11:20.477Z,7.97
2023-05-21T01:13:48.094Z,9.10
2023-05-21T01:16:15.691Z,11.80
2023-05-21T01:18:43.277Z,10.77
2023-05-21T01:21:10.856Z,12.97
2023-05-21T01:23:38.441Z,13.40
2023-05-21T01:26:06.015Z,12.77
2023-05-21T01:28:33.626Z,12.90
2023-05-21T01:31:02.001Z,10.00
2023-05-21T01:33:44.458Z,11.03
2023-05-21T01:36:26.544Z,13.13
2023-05-21T01:39:18.265Z,12.50
2023-05-21T01:41:45.831Z,10.60
2023-05-21T01:44:13.446Z,11.17
2023-05-21T01:46:41.171Z,13.70
2023-05-21T01:49:08.618Z,12.50
2023-05-21T01:51:36.225Z,14.90
2023-05-21T01:54:03.818Z,13.60
2023-05-21T01:56:31.406Z,12.55
2023-05-21T01:58:58.995Z,11.23
2023-05-21T02:01:26.618Z,12.77
2023-05-21T02:03:54.334Z,12.73
2023-05-21T02:06:21.792Z,12.67
2023-05-21T02:08:50.213Z,13.93
2023-05-21T02:11:17.796Z,11.37
2023-05-21T02:13:45.366Z,13.23
2023-05-21T02:16:13.102Z,12.30
2023-05-21T02:18:40.651Z,13.40
2023-05-21T02:21:08.962Z,14.80
2023-05-21T02:23:36.664Z,12.93
2023-05-21T02:26:05.026Z,15.02
2023-05-21T02:28:32.608Z,15.00
2023-05-21T02:31:00.991Z,14.23
2023-05-21T02:33:28.586Z,13.83
2023-05-21T02:35:56.181Z,13.50
2023-05-21T02:38:23.791Z,15.33
2023-05-21T02:40:51.389Z,14.27
2023-05-21T02:43:18.990Z,14.63
2023-05-21T02:45:47.484Z,14.60
2023-05-21T02:48:14.995Z,15.37
2023-05-21T02:50:42.600Z,15.30
2023-05-21T02:53:10.988Z,14.30
2023-05-21T02:55:38.706Z,12.73
2023-05-21T02:58:06.169Z,12.97
2023-05-21T03:00:33.780Z,14.07
2023-05-21T03:03:01.511Z,11.63
2023-05-21T03:05:28.954Z,16.43
2023-05-21T03:07:56.571Z,13.23
2023-05-21T03:10:24.168Z,14.00
2023-05-21T03:12:51.746Z,13.07
2023-05-21T03:15:20.127Z,15.27
2023-05-21T03:17:47.772Z,14.67
2023-05-21T03:20:15.325Z,14.83
2023-05-21T03:22:45.994Z,16.33
2023-05-21T03:25:13.555Z,14.67
2023-05-21T03:27:41.177Z,13.93
2023-05-21T03:30:08.875Z,16.87
2023-05-21T03:32:36.597Z,17.97
2023-05-21T03:35:04.062Z,14.07
2023-05-21T03:37:32.465Z,18.17
2023-05-21T03:40:00.058Z,17.13
2023-05-21T03:42:27.623Z,16.13
2023-05-21T03:44:55.288Z,14.40
2023-05-21T03:47:22.904Z,15.20
2023-05-21T03:49:50.469Z,16.77
2023-05-21T03:52:18.134Z,15.70
2023-05-21T03:54:45.708Z,18.67
2023-05-21T03:57:13.315Z,15.00
2023-05-21T03:59:40.963Z,16.33
2023-05-21T04:02:08.640Z,16.10
2023-05-21T04:04:36.199Z,17.10
2023-05-21T04:07:03.778Z,15.87
2023-05-21T04:09:32.226Z,15.17
2023-05-21T04:11:59.790Z,15.63
2023-05-21T04:14:27.431Z,17.50
2023-05-21T04:16:55.021Z,17.52
2023-05-21T04:19:22.705Z,17.03
2023-05-21T04:21:50.273Z,15.10
2023-05-21T04:24:17.852Z,16.17
2023-05-21T04:26:45.451Z,15.90
2023-05-21T04:29:13.091Z,17.07
2023-05-21T04:31:40.676Z,16.75
2023-05-21T04:34:08.256Z,15.00
2023-05-21T04:36:36.649Z,16.97
2023-05-21T04:39:05.006Z,16.20
2023-05-21T04:41:32.618Z,15.67
2023-05-21T04:44:00.310Z,16.23
2023-05-21T04:46:27.938Z,17.17
2023-05-21T04:48:56.246Z,14.30
2023-05-21T04:51:24.009Z,16.97
2023-05-21T04:53:51.580Z,17.67
2023-05-21T04:56:19.935Z,16.80
2023-05-21T04:58:47.558Z,16.27
2023-05-21T05:01:15.174Z,17.23
2023-05-21T05:03:42.782Z,19.23
2023-05-21T05:06:10.389Z,19.13
2023-05-21T05:08:37.977Z,15.67
2023-05-21T05:11:06.328Z,16.98
2023-05-21T05:13:34.099Z,14.97
2023-05-21T05:16:01.691Z,19.12
2023-05-21T05:18:30.035Z,17.40
2023-05-21T05:20:57.696Z,16.97
2023-05-21T05:23:25.268Z,17.70
2023-05-21T05:25:53.604Z,17.03
2023-05-21T05:28:21.225Z,15.37
2023-05-21T05:30:48.874Z,16.60
2023-05-21T05:33:16.423Z,15.83
2023-05-21T05:35:44.082Z,18.10
2023-05-21T05:38:11.648Z,16.95
2023-05-21T05:40:40.028Z,18.58
2023-05-21T05:43:08.412Z,19.27
2023-05-21T05:45:36.916Z,18.47
2023-05-21T05:48:04.432Z,20.57
2023-05-21T05:50:32.731Z,16.47
2023-05-21T05:53:00.347Z,15.37
2023-05-21T05:55:27.928Z,20.67
2023-05-21T05:57:55.555Z,17.63
2023-05-21T06:00:23.162Z,16.73
2023-05-21T06:02:50.814Z,21.07
2023-05-21T06:05:19.198Z,17.50
2023-05-21T06:07:46.770Z,19.00
2023-05-21T06:10:15.116Z,19.25
2023-05-21T06:12:42.758Z,17.27
2023-05-21T06:15:10.355Z,19.20
2023-05-21T06:17:37.982Z,16.90
2023-05-21T06:20:05.700Z,16.07
2023-05-21T06:22:33.302Z,18.57
2023-05-21T06:25:00.885Z,18.50
2023-05-21T06:27:28.656Z,17.97
2023-05-21T06:29:56.241Z,18.37
2023-05-21T06:32:24.623Z,17.83
2023-05-21T06:34:52.224Z,20.27
2023-05-21T06:37:19.802Z,18.75
2023-05-21T06:39:47.397Z,20.50
2023-05-21T06:42:15.824Z,17.77
2023-05-21T06:44:43.419Z,17.93
2023-05-21T06:47:10.992Z,19.55
2023-05-21T06:49:39.394Z,17.33
2023-05-21T06:52:06.979Z,17.93
2023-05-21T06:54:34.581Z,16.13
2023-05-21T06:57:02.205Z,18.30
2023-05-21T06:59:29.827Z,17.07
2023-05-21T07:01:57.392Z,18.07
2023-05-21T07:04:25.043Z,18.43
2023-05-21T07:06:53.387Z,17.50
2023-05-21T07:09:20.970Z,18.90
2023-05-21T07:11:49.390Z,18.73
2023-05-21T07:14:16.985Z,17.63
2023-05-21T07:16:44.631Z,15.40
2023-05-21T07:19:13.028Z,17.52
2023-05-21T07:21:40.595Z,17.57
2023-05-21T07:24:08.177Z,15.97
2023-05-21T07:26:36.621Z,14.90
2023-05-21T07:29:04.205Z,16.63
2023-05-21T07:31:32.609Z,15.35
2023-05-21T07:34:00.180Z,18.53
2023-05-21T07:36:27.761Z,16.67
2023-05-21T07:38:55.344Z,17.20
2023-05-21T07:41:22.980Z,16.30
2023-05-21T07:43:50.584Z,17.47
2023-05-21T07:46:18.953Z,19.83
2023-05-21T07:48:46.608Z,17.87
2023-05-21T07:51:14.159Z,17.48
2023-05-21T07:53:41.749Z,16.60
2023-05-21T07:56:10.137Z,19.10
2023-05-21T07:58:37.711Z,17.10
2023-05-21T08:01:05.310Z,17.03
2023-05-21T08:03:33.056Z,16.60
2023-05-21T08:06:00.513Z,15.47
2023-05-21T08:08:28.104Z,14.57
2023-05-21T08:10:55.719Z,16.87
2023-05-21T08:13:23.329Z,15.95
2023-05-21T08:15:52.814Z,16.97
2023-05-21T08:18:19.330Z,16.83
2023-05-21T08:20:46.903Z,16.77
2023-05-21T08:23:14.500Z,17.17
2023-05-21T08:25:42.922Z,16.73
2023-05-21T08:28:11.227Z,14.00
2023-05-21T08:30:38.829Z,16.20
2023-05-21T08:33:06.545Z,16.70
2023-05-21T08:35:34.914Z,17.77
2023-05-21T08:38:02.422Z,15.20
2023-05-21T08:40:30.820Z,15.75
2023-05-21T08:42:58.402Z,14.33
2023-05-21T08:45:26.022Z,14.20
2023-05-21T08:47:59.719Z,15.00
2023-05-21T08:50:27.279Z,16.23
2023-05-21T08:52:54.846Z,16.03
2023-05-21T08:55:25.261Z,16.12
2023-05-21T08:57:53.659Z,15.63
2023-05-21T09:00:21.209Z,16.93
2023-05-21T09:02:49.598Z,17.77
2023-05-21T09:05:17.937Z,16.27
2023-05-21T09:07:52.473Z,16.87
2023-05-21T09:10:19.543Z,15.93
2023-05-21T09:12:47.032Z,16.37
2023-05-21T09:15:14.627Z,16.73
2023-05-21T09:17:42.318Z,15.77
2023-05-21T09:20:13.030Z,17.60
2023-05-21T09:22:41.387Z,14.83
2023-05-21T09:25:09.203Z,13.93
2023-05-21T09:27:36.828Z,13.60
2023-05-21T09:30:04.384Z,14.60
2023-05-21T09:32:32.041Z,12.60
2023-05-21T09:34:59.599Z,13.83
2023-05-21T09:37:27.878Z,13.50
2023-05-21T09:39:55.595Z,16.67
2023-05-21T09:42:23.155Z,16.00
2023-05-21T09:44:50.744Z,12.90
2023-05-21T09:47:18.375Z,14.67
2023-05-21T09:49:45.959Z,13.80
2023-05-21T09:52:13.534Z,13.70
2023-05-21T09:54:41.168Z,16.90
2023-05-21T09:57:08.760Z,14.60
2023-05-21T09:59:36.367Z,12.53
2023-05-21T10:02:04.079Z,15.57
2023-05-21T10:04:31.622Z,13.90
2023-05-21T10:06:59.194Z,15.17
2023-05-21T10:09:26.807Z,14.93
2023-05-21T10:11:54.378Z,17.42
2023-05-21T10:14:21.957Z,12.43
2023-05-21T10:16:49.693Z,14.73
2023-05-21T10:19:17.313Z,14.63
2023-05-21T10:21:44.882Z,14.07
2023-05-21T10:24:12.495Z,13.70
2023-05-21T10:26:40.060Z,13.30
2023-05-21T10:29:07.638Z,12.37
2023-05-21T10:31:35.254Z,13.73
2023-05-21T10:34:02.848Z,15.77
2023-05-21T10:36:30.421Z,14.00
2023-05-21T10:38:58.085Z,13.87
2023-05-21T10:41:25.691Z,13.07
2023-05-21T10:43:53.256Z,13.43
2023-05-21T10:46:39.502Z,11.60
2023-05-21T10:49:25.509Z,13.07
2023-05-21T10:51:56.927Z,13.13
2023-05-21T10:54:36.365Z,14.50
2023-05-21T10:57:25.139Z,12.80
2023-05-21T10:59:52.723Z,14.40
2023-05-21T11:02:21.122Z,11.38
2023-05-21T11:04:48.861Z,14.27
2023-05-21T11:07:17.189Z,20.83
2023-05-21T11:09:44.759Z,12.60
2023-05-21T11:12:12.403Z,13.90
2023-05-21T11:14:40.178Z,10.67
2023-05-21T11:17:10.614Z,14.00
2023-05-21T11:19:44.047Z,11.57
2023-05-21T11:22:11.466Z,13.57
2023-05-21T11:24:39.051Z,13.95
2023-05-21T11:27:07.430Z,11.27
2023-05-21T11:29:44.908Z,11.63
2023-05-21T11:32:12.554Z,10.87
2023-05-21T11:34:40.137Z,12.97
2023-05-21T11:37:25.586Z,12.67
2023-05-21T11:39:53.147Z,10.97
2023-05-21T11:42:29.641Z,12.87
2023-05-21T11:44:57.269Z,11.27
2023-05-21T11:47:24.867Z,10.33
2023-05-21T11:49:52.432Z,12.75
2023-05-21T11:52:20.860Z,12.33
2023-05-21T11:54:51.515Z,10.50
2023-05-21T11:57:19.131Z,12.17
2023-05-21T11:59:46.738Z,11.43
2023-05-21T12:02:17.269Z,14.77
2023-05-21T12:04:44.813Z,9.93
2023-05-21T12:07:12.432Z,9.87
2023-05-21T12:09:42.925Z,9.67
2023-05-21T12:12:10.515Z,10.20
2023-05-21T12:14:38.896Z,10.90
2023-05-21T12:17:06.480Z,8.97
2023-05-21T12:19:36.949Z,13.57
2023-05-21T12:22:04.629Z,22.10
2023-05-21T12:24:32.996Z,8.87
2023-05-21T12:27:00.580Z,9.13
2023-05-21T12:29:28.971Z,9.63
2023-05-21T12:31:59.859Z,8.27
2023-05-21T12:34:45.483Z,8.37
2023-05-21T12:37:16.384Z,7.97
2023-05-21T12:39:46.660Z,10.63
2023-05-21T12:42:14.289Z,10.70
2023-05-21T12:44:45.289Z,13.97
2023-05-21T12:47:12.875Z,10.57
2023-05-21T12:49:40.508Z,12.00
2023-05-21T12:52:13.835Z,9.85
2023-05-21T12:54:41.425Z,9.53
2023-05-21T12:57:11.786Z,9.73
2023-05-21T12:59:57.191Z,8.03
2023-05-21T13:02:27.512Z,8.07
2023-05-21T13:04:55.040Z,8.83
2023-05-21T13:07:22.620Z,7.43
2023-05-21T13:09:50.225Z,8.93
2023-05-21T13:12:17.800Z,7.73
2023-05-21T13:14:45.428Z,10.23
2023-05-21T13:17:13.003Z,9.40
2023-05-21T13:19:41.339Z,9.93
2023-05-21T13:22:08.915Z,9.97
2023-05-21T13:24:37.320Z,9.23
2023-05-21T13:27:04.869Z,9.10
2023-05-21T13:29:33.221Z,8.73
2023-05-21T13:32:00.835Z,8.93
2023-05-21T13:34:28.413Z,9.17
2023-05-21T13:36:56.028Z,9.80
2023-05-21T13:39:23.597Z,10.70
2023-05-21T13:41:51.168Z,8.80
2023-05-21T13:44:18.746Z,8.30
2023-05-21T13:46:46.393Z,8.03
2023-05-21T13:49:14.721Z,9.57
2023-05-21T13:51:42.288Z,9.43
2023-05-21T13:54:09.910Z,10.80
2023-05-21T13:56:37.587Z,9.00
2023-05-21T13:59:05.068Z,8.10
2023-05-21T14:01:32.804Z,9.10
2023-05-21T14:04:00.278Z,10.40
2023-05-21T14:06:27.847Z,8.00
2023-05-21T14:08:56.241Z,8.53
2023-05-21T14:11:24.572Z,9.13
2023-05-21T14:13:52.166Z,9.57
2023-05-21T14:16:19.822Z,8.27
2023-05-21T14:18:47.395Z,8.57
2023-05-21T14:21:14.960Z,10.10
2023-05-21T14:23:43.349Z,9.53
2023-05-21T14:26:10.938Z,8.80
2023-05-21T14:28:38.517Z,8.48
2023-05-21T14:31:06.128Z,8.50
2023-05-21T14:33:33.701Z,9.67
2023-05-21T14:36:01.285Z,10.17
2023-05-21T14:38:28.938Z,9.67
2023-05-21T14:40:56.482Z,9.23
2023-05-21T14:43:24.074Z,8.50
2023-05-21T14:45:51.693Z,10.90
2023-05-21T14:48:19.253Z,8.63
2023-05-21T14:50:46.816Z,10.07
2023-05-21T14:53:14.497Z,7.77
2023-05-21T14:55:42.979Z,8.23
2023-05-21T14:58:10.354Z,9.93
2023-05-21T15:00:37.978Z,8.10
2023-05-21T15:03:05.633Z,8.73
2023-05-21T15:05:33.199Z,9.77
2023-05-21T15:08:01.557Z,8.93
2023-05-21T15:10:29.910Z,7.57
2023-05-21T15:12:57.475Z,7.97
2023-05-21T15:15:25.943Z,9.77
2023-05-21T15:17:53.557Z,9.07
2023-05-21T15:20:21.916Z,9.00
2023-05-21T15:22:48.820Z,9.80
2023-05-21T15:25:16.412Z,9.20
2023-05-21T15:27:44.842Z,8.85
2023-05-21T15:30:12.500Z,9.20
2023-05-21T15:32:40.097Z,9.32
2023-05-21T15:35:07.724Z,9.03
2023-05-21T15:37:36.052Z,9.33
2023-05-21T15:40:03.619Z,7.70
2023-05-21T15:42:31.241Z,7.50
2023-05-21T15:44:58.863Z,7.50
2023-05-21T15:47:26.549Z,7.97
2023-05-21T15:49:54.031Z,9.20
2023-05-21T15:52:21.652Z,7.97
2023-05-21T15:54:49.227Z,8.40
2023-05-21T15:57:16.825Z,11.10
2023-05-21T15:59:45.430Z,8.60
2023-05-21T16:02:12.986Z,8.33
2023-05-21T16:04:40.569Z,8.23
2023-05-21T16:07:08.188Z,10.57
2023-05-21T16:09:36.524Z,18.77
2023-05-21T16:12:04.120Z,8.20
2023-05-21T16:14:31.767Z,10.77
2023-05-21T16:16:59.336Z,12.33
2023-05-21T16:19:26.954Z,10.17
2023-05-21T16:21:54.726Z,9.40
2023-05-21T16:24:25.241Z,10.23
2023-05-21T16:26:53.232Z,8.17
2023-05-21T16:29:22.048Z,8.83
2023-05-21T16:31:49.451Z,8.98
2023-05-21T16:34:17.034Z,9.07
2023-05-21T16:36:44.598Z,9.03
2023-05-21T16:39:12.193Z,10.40
2023-05-21T16:41:40.545Z,10.48
2023-05-21T16:44:08.171Z,11.07
2023-05-21T16:46:35.843Z,9.18
2023-05-21T16:49:03.337Z,11.07
2023-05-21T16:51:30.953Z,8.87
2023-05-21T16:53:58.535Z,8.13
2023-05-21T16:56:26.128Z,9.03
2023-05-21T16:58:54.539Z,9.93
2023-05-21T17:01:22.172Z,8.37
2023-05-21T17:03:49.873Z,8.10
2023-05-21T17:06:18.117Z,7.23
2023-05-21T17:08:45.691Z,8.40
2023-05-21T17:11:13.271Z,9.37
2023-05-21T17:13:40.897Z,12.10
2023-05-21T17:16:09.286Z,9.23
2023-05-21T17:18:37.620Z,9.93
2023-05-21T17:21:05.249Z,12.60
2023-05-21T17:23:32.864Z,11.97
2023-05-21T17:26:01.229Z,11.03
2023-05-21T17:28:28.831Z,10.53
2023-05-21T17:30:56.405Z,11.32
2023-05-21T17:33:24.013Z,11.43
2023-05-21T17:35:51.642Z,9.17
2023-05-21T17:38:19.217Z,9.87
2023-05-21T17:40:46.794Z,9.77
2023-05-21T17:43:15.374Z,9.57
2023-05-21T17:45:42.960Z,10.53
2023-05-21T17:48:10.568Z,9.00
2023-05-21T17:50:38.321Z,9.40
2023-05-21T17:53:05.930Z,11.13
2023-05-21T17:55:34.359Z,9.20
2023-05-21T17:58:01.927Z,10.90
2023-05-21T18:00:29.495Z,10.70
2023-05-21T18:02:57.160Z,10.30
2023-05-21T18:05:24.686Z,13.83
2023-05-21T18:07:52.261Z,11.43
2023-05-21T18:10:19.834Z,8.67
2023-05-21T18:12:47.459Z,14.70
2023-05-21T18:15:15.055Z,10.93
2023-05-21T18:17:42.717Z,10.57
2023-05-21T18:20:10.318Z,9.80
2023-05-21T18:22:37.904Z,9.87
2023-05-21T18:25:05.485Z,9.47
2023-05-21T18:27:33.137Z,9.70
2023-05-21T18:30:00.709Z,8.67
2023-05-21T18:32:28.388Z,12.03
2023-05-21T18:34:55.903Z,10.20
2023-05-21T18:37:23.592Z,10.57
2023-05-21T18:39:51.062Z,8.77
2023-05-21T18:42:18.937Z,10.95
2023-05-21T18:44:46.549Z,10.33
2023-05-21T18:47:14.874Z,11.67
2023-05-21T18:49:42.694Z,10.53
2023-05-21T18:52:10.266Z,11.30
2023-05-21T18:54:37.878Z,12.23
2023-05-21T18:57:06.325Z,13.93
2023-05-21T18:59:33.885Z,9.17
2023-05-21T19:02:01.561Z,9.13
2023-05-21T19:04:29.105Z,9.63
2023-05-21T19:06:56.705Z,10.60
2023-05-21T19:09:25.065Z,12.75
2023-05-21T19:11:52.666Z,11.40
2023-05-21T19:14:20.256Z,14.15
2023-05-21T19:16:47.825Z,9.17
2023-05-21T19:19:15.479Z,11.60
2023-05-21T19:21:43.063Z,10.68
2023-05-21T19:24:11.415Z,12.80
2023-05-21T19:26:39.102Z,11.27
2023-05-21T19:29:06.633Z,12.40
2023-05-21T19:31:34.226Z,12.93
2023-05-21T19:34:03.643Z,10.47
2023-05-21T19:36:40.843Z,10.53
2023-05-21T19:38:58.823Z,11.60
2023-05-21T19:41:26.451Z,12.63
2023-05-21T19:43:54.046Z,12.50
2023-05-21T19:46:21.802Z,11.47
2023-05-21T19:48:50.048Z,11.93
2023-05-21T19:51:17.640Z,11.87
2023-05-21T19:53:45.284Z,12.53
2023-05-21T19:56:12.901Z,11.53
2023-05-21T19:58:41.422Z,18.80
2023-05-21T20:01:09.764Z,22.63
2023-05-21T20:03:38.385Z,18.77
2023-05-21T20:06:05.968Z,19.00
2023-05-21T20:08:33.573Z,23.57
2023-05-21T20:11:02.020Z,20.83
2023-05-21T20:13:29.555Z,22.80
2023-05-21T20:15:57.148Z,22.97
2023-05-21T20:18:24.797Z,22.45
2023-05-21T20:20:52.386Z,22.33
2023-05-21T20:23:20.943Z,17.93
2023-05-21T20:25:48.564Z,14.63
2023-05-21T20:28:16.131Z,15.35
2023-05-21T20:30:52.847Z,17.80
2023-05-21T20:33:20.436Z,14.17
2023-05-21T20:35:48.030Z,16.37
2023-05-21T20:38:15.634Z,16.23
2023-05-21T20:40:44.049Z,17.87
2023-05-21T20:43:14.554Z,14.73
2023-05-21T20:45:43.249Z,16.50
2023-05-21T20:48:10.929Z,15.80
2023-05-21T20:50:39.033Z,13.20
2023-05-21T20:53:06.388Z,15.23
2023-05-21T20:55:34.053Z,13.57
2023-05-21T20:58:01.627Z,12.17
2023-05-21T21:00:29.998Z,15.60
2023-05-21T21:02:57.680Z,14.67
2023-05-21T21:05:25.226Z,17.03
2023-05-21T21:07:55.741Z,15.47
2023-05-21T21:10:21.233Z,13.73
2023-05-21T21:12:48.869Z,13.95
2023-05-21T21:15:16.682Z,16.03
2023-05-21T21:17:44.718Z,15.93
2023-05-21T21:20:12.412Z,13.00
2023-05-21T21:22:40.009Z,16.07
2023-05-21T21:25:07.676Z,16.07
2023-05-21T21:27:36.062Z,16.20
2023-05-21T21:30:03.648Z,16.00
2023-05-21T21:32:32.405Z,18.45
2023-05-21T21:35:00.343Z,18.80
2023-05-21T21:37:27.946Z,18.23
2023-05-21T21:39:55.568Z,17.20
2023-05-21T21:42:24.054Z,16.77
2023-05-21T21:44:52.411Z,15.80
2023-05-21T21:47:20.118Z,14.60
2023-05-21T21:49:47.717Z,16.83
2023-05-21T21:52:15.309Z,16.43
2023-05-21T21:54:43.717Z,16.95
2023-05-21T21:57:12.049Z,16.33
2023-05-21T21:59:39.612Z,16.63
2023-05-21T22:02:08.005Z,15.73
2023-05-21T22:04:36.460Z,16.33
2023-05-21T22:07:03.970Z,18.37
2023-05-21T22:09:31.643Z,19.17
2023-05-21T22:11:59.946Z,17.40
2023-05-21T22:14:27.539Z,18.10
2023-05-21T22:16:56.022Z,18.00
2023-05-21T22:19:23.637Z,17.40
2023-05-21T22:21:51.939Z,18.58
2023-05-21T22:24:31.417Z,18.00
2023-05-21T22:26:47.164Z,18.47
2023-05-21T22:29:14.738Z,18.60
2023-05-21T22:31:43.216Z,18.60
2023-05-21T22:34:10.795Z,18.90
2023-05-21T22:36:39.144Z,20.88
2023-05-21T22:39:06.782Z,18.07
2023-05-21T22:41:34.363Z,24.10
2023-05-21T22:44:01.946Z,17.77
2023-05-21T22:46:29.598Z,19.13
2023-05-21T22:48:57.164Z,20.33
2023-05-21T22:51:25.533Z,19.80
2023-05-21T22:53:53.947Z,19.23
2023-05-21T22:56:21.534Z,20.27
2023-05-21T22:58:49.159Z,21.57
2023-05-21T23:01:16.826Z,21.67
2023-05-21T23:03:44.363Z,22.67
2023-05-21T23:06:12.721Z,18.37
2023-05-21T23:08:40.341Z,20.83
2023-05-21T23:11:07.940Z,19.10
2023-05-21T23:13:35.783Z,20.73
2023-05-21T23:16:03.455Z,21.65
2023-05-21T23:18:30.989Z,19.17
2023-05-21T23:20:58.621Z,21.00
2023-05-21T23:23:26.219Z,18.53
2023-05-21T23:25:53.820Z,20.40
2023-05-21T23:28:21.419Z,19.13
2023-05-21T23:30:49.045Z,21.30
2023-05-21T23:33:17.401Z,18.33
2023-05-21T23:35:44.991Z,22.47
2023-05-21T23:38:13.457Z,20.57
2023-05-21T23:40:41.149Z,19.63
2023-05-21T23:43:08.643Z,21.13
2023-05-21T23:45:36.304Z,23.47
2023-05-21T23:48:04.722Z,21.27
2023-05-21T23:50:32.261Z,21.57
2023-05-21T23:52:59.890Z,18.20
2023-05-21T23:55:27.741Z,21.37
2023-05-21T23:57:55.319Z,18.40
